Time;durP1;ratioP1;P1;durP2;ratioP2;P2;SDS_P1;SDS_P2;PMS_P1;PMS_P2;Temp;Humidity;BMP_temperature;BMP_pressure;BME280_temperature;BME280_humidity;BME280_pressure;Samples;Min_cycle;Max_cycle;Signal;HPM_P1;HPM_P2
2023/08/21 00:00:51;;;;;;;10.05;7.88;;;;;;;29.33;64.22;101250.81;4898105;29;20045;-84
2023/08/21 00:03:21;;;;;;;11.15;8.30;;;;;;;29.29;64.65;101258.41;4908184;29;20048;-83
2023/08/21 00:05:49;;;;;;;9.38;7.57;;;;;;;29.26;65.12;101251.56;4918062;29;20059;-83
2023/08/21 00:08:17;;;;;;;10.15;8.63;;;;;;;29.08;66.99;101252.25;4918368;29;20059;-83
2023/08/21 00:10:45;;;;;;;8.50;7.60;;;;;;;29.18;66.74;101255.53;4917919;29;20067;-83
2023/08/21 00:13:13;;;;;;;11.07;8.68;;;;;;;29.22;66.57;101259.16;4917609;29;20052;-83
2023/08/21 00:15:41;;;;;;;10.25;8.23;;;;;;;29.12;66.55;101249.47;4917615;29;20051;-83
2023/08/21 00:18:09;;;;;;;8.75;7.85;;;;;;;29.11;66.40;101245.03;4917663;29;20047;-83
2023/08/21 00:20:37;;;;;;;9.68;7.50;;;;;;;29.14;66.45;101243.44;4917499;29;20048;-83
2023/08/21 00:23:05;;;;;;;10.95;8.25;;;;;;;28.88;66.96;101245.28;4917957;29;20078;-83
2023/08/21 00:25:33;;;;;;;10.30;8.25;;;;;;;29.00;67.38;101246.97;4917244;29;20150;-83
2023/08/21 00:28:01;;;;;;;8.77;7.68;;;;;;;29.06;66.93;101245.41;4916386;29;20036;-84
2023/08/21 00:30:29;;;;;;;11.30;8.30;;;;;;;28.92;66.19;101252.56;4916072;29;20044;-83
2023/08/21 00:32:57;;;;;;;11.90;9.10;;;;;;;28.99;66.88;101251.00;4915934;29;20048;-83
2023/08/21 00:35:25;;;;;;;8.07;7.18;;;;;;;29.02;66.17;101251.00;4917324;29;20052;-83
2023/08/21 00:37:53;;;;;;;9.38;7.70;;;;;;;29.14;65.87;101247.06;4917526;29;20403;-85
2023/08/21 00:40:21;;;;;;;9.55;8.02;;;;;;;28.97;64.73;101248.56;4900226;29;20056;-83
2023/08/21 00:42:49;;;;;;;8.63;7.60;;;;;;;28.84;65.88;101251.66;4915780;29;20063;-83
2023/08/21 00:45:17;;;;;;;9.25;7.85;;;;;;;28.85;65.12;101255.28;4917322;29;20068;-83
2023/08/21 00:47:46;;;;;;;10.45;7.45;;;;;;;28.87;65.53;101250.09;4931910;29;20052;-83
2023/08/21 00:50:15;;;;;;;10.88;8.07;;;;;;;28.87;66.32;101243.69;4915933;29;20487;-84
2023/08/21 00:52:45;;;;;;;9.75;6.93;;;;;;;28.97;66.02;101242.91;4916520;29;20530;-83
2023/08/21 00:55:13;;;;;;;15.80;7.82;;;;;;;29.06;65.40;101245.41;4917026;29;20068;-83
2023/08/21 00:57:41;;;;;;;9.48;8.27;;;;;;;28.78;65.15;101236.31;4915634;29;20083;-82
2023/08/21 01:00:10;;;;;;;8.68;7.63;;;;;;;28.94;65.50;101241.69;4915260;29;20052;-84
2023/08/21 01:02:38;;;;;;;10.25;7.65;;;;;;;28.80;64.66;101250.84;4916955;29;20063;-82
2023/08/21 01:05:11;;;;;;;8.68;7.40;;;;;;;28.82;65.97;101236.34;4916946;29;20047;-83
2023/08/21 01:07:53;;;;;;;11.30;8.20;;;;;;;28.90;65.76;101238.06;4916940;29;20055;-83
2023/08/21 01:11:00;;;;;;;11.77;7.75;;;;;;;28.78;65.65;101241.97;4916637;29;20508;-83
2023/08/21 01:13:45;;;;;;;10.40;7.15;;;;;;;28.67;66.52;101249.50;4908484;29;20055;-84
2023/08/21 01:16:14;;;;;;;10.85;7.80;;;;;;;28.77;66.03;101250.78;4915283;29;20036;-83
2023/08/21 01:18:44;;;;;;;8.43;6.72;;;;;;;28.77;65.07;101242.34;4915896;29;20064;-84
2023/08/21 01:21:13;;;;;;;8.80;6.82;;;;;;;28.76;62.76;101258.44;4916604;29;20052;-83
2023/08/21 01:23:44;;;;;;;7.65;6.78;;;;;;;28.76;63.64;101252.00;4915305;29;20052;-83
2023/08/21 01:26:13;;;;;;;7.60;6.75;;;;;;;28.81;62.99;101251.63;4916510;29;20051;-83
2023/08/21 01:28:41;;;;;;;9.40;7.32;;;;;;;28.57;62.56;101249.03;4916974;29;20052;-83
2023/08/21 01:31:26;;;;;;;7.75;6.95;;;;;;;28.40;63.46;101250.47;4915167;29;20040;-83
2023/08/21 01:33:59;;;;;;;8.32;6.50;;;;;;;28.45;64.41;101246.53;4915067;29;20067;-83
2023/08/21 01:36:28;;;;;;;8.20;7.37;;;;;;;28.49;63.91;101240.94;4915076;29;20494;-83
2023/08/21 01:38:56;;;;;;;7.93;6.55;;;;;;;28.46;64.20;101252.94;4914991;29;20320;-82
2023/08/21 01:41:25;;;;;;;8.10;6.40;;;;;;;28.52;63.89;101251.38;4916203;29;20056;-83
2023/08/21 01:43:54;;;;;;;8.32;6.78;;;;;;;28.41;64.53;101248.50;4914456;29;20415;-83
2023/08/21 01:46:22;;;;;;;9.93;6.53;;;;;;;28.46;63.63;101244.50;4916671;29;20052;-82
2023/08/21 01:48:50;;;;;;;8.25;6.53;;;;;;;28.39;63.67;101246.06;4914940;29;20040;-82
2023/08/21 01:51:17;;;;;;;11.82;7.75;;;;;;;28.22;64.67;101250.31;4914791;29;20048;-82
2023/08/21 01:53:45;;;;;;;10.68;7.20;;;;;;;28.15;65.58;101245.38;4915649;29;20051;-83
2023/08/21 01:56:13;;;;;;;8.65;7.28;;;;;;;28.28;65.35;101247.97;4914875;29;20067;-83
2023/08/21 01:58:41;;;;;;;9.50;7.57;;;;;;;28.38;65.41;101246.44;4914858;29;20044;-82
2023/08/21 02:01:09;;;;;;;9.25;7.95;;;;;;;28.45;64.83;101249.34;4914747;29;20048;-83
2023/08/21 02:03:37;;;;;;;9.25;7.20;;;;;;;28.42;65.14;101248.09;4915607;29;20439;-83
2023/08/21 02:06:05;;;;;;;10.45;7.65;;;;;;;28.40;64.73;101244.06;4914816;29;20068;-83
2023/08/21 02:08:33;;;;;;;9.07;7.13;;;;;;;28.31;64.02;101250.00;4914541;29;20514;-83
2023/08/21 02:11:01;;;;;;;9.02;6.53;;;;;;;28.34;64.75;101252.03;4916223;29;20396;-83
2023/08/21 02:13:29;;;;;;;11.77;7.05;;;;;;;28.35;64.31;101253.66;4915713;29;20570;-83
2023/08/21 02:15:57;;;;;;;8.48;7.13;;;;;;;28.31;64.39;101258.44;4914716;29;20384;-83
2023/08/21 02:18:26;;;;;;;9.43;7.25;;;;;;;28.07;64.53;101251.31;4916140;29;20063;-83
2023/08/21 02:20:54;;;;;;;14.13;6.60;;;;;;;27.98;65.28;101240.38;4915624;29;20060;-83
2023/08/21 02:23:24;;;;;;;10.15;7.05;;;;;;;28.05;64.11;101251.72;4914320;29;20056;-82
2023/08/21 02:25:52;;;;;;;9.55;6.38;;;;;;;28.17;64.46;101245.84;4918459;29;20399;-83
2023/08/21 02:28:19;;;;;;;8.27;7.05;;;;;;;27.88;64.94;101253.13;4919908;29;20164;-83
2023/08/21 02:30:48;;;;;;;8.75;7.30;;;;;;;28.00;65.00;101244.44;4918156;29;20059;-82
2023/08/21 02:33:16;;;;;;;9.60;6.82;;;;;;;27.97;65.06;101245.22;4917948;29;20084;-82
2023/08/21 02:35:44;;;;;;;11.40;6.75;;;;;;;28.04;65.14;101244.47;4919546;29;20063;-83
2023/08/21 02:38:12;;;;;;;9.75;6.38;;;;;;;28.16;64.83;101241.38;4919431;29;20487;-83
2023/08/21 02:40:40;;;;;;;7.82;6.85;;;;;;;28.01;64.00;101245.25;4918110;29;20047;-83
2023/08/21 02:43:07;;;;;;;8.43;6.53;;;;;;;27.86;63.95;101247.88;4918336;29;20086;-83
2023/08/21 02:45:35;;;;;;;7.65;6.85;;;;;;;27.90;63.74;101245.94;4918085;29;20040;-83
2023/08/21 02:48:04;;;;;;;8.07;6.88;;;;;;;27.98;64.27;101235.56;4918150;29;20075;-83
2023/08/21 02:50:34;;;;;;;8.73;6.38;;;;;;;28.06;64.00;101247.72;4919234;29;20052;-82
2023/08/21 02:53:02;;;;;;;9.07;6.65;;;;;;;28.13;63.93;101244.97;4917867;29;20059;-83
2023/08/21 02:55:30;;;;;;;9.45;6.47;;;;;;;28.11;63.33;101241.72;4917635;29;20063;-83
2023/08/21 02:57:58;;;;;;;7.75;6.75;;;;;;;27.93;63.22;101241.53;4933686;29;20052;-82
2023/08/21 03:00:26;;;;;;;7.32;6.47;;;;;;;27.98;64.11;101243.19;4919166;29;20056;-83
2023/08/21 03:02:56;;;;;;;7.50;5.93;;;;;;;27.85;63.75;101245.47;4919389;29;20395;-83
2023/08/21 03:05:25;;;;;;;7.53;6.72;;;;;;;27.79;63.80;101244.16;4917782;29;20048;-82
2023/08/21 03:07:53;;;;;;;7.53;6.75;;;;;;;27.52;64.33;101245.06;4918780;29;20072;-82
2023/08/21 03:10:23;;;;;;;7.85;6.88;;;;;;;27.73;63.69;101246.53;4917569;29;20044;-83
2023/08/21 03:12:51;;;;;;;9.10;6.90;;;;;;;27.81;63.17;101241.81;4918949;29;20064;-83
2023/08/21 03:15:20;;;;;;;7.55;6.63;;;;;;;27.79;63.10;101239.38;4917660;29;20067;-83
2023/08/21 03:17:48;;;;;;;7.20;6.32;;;;;;;27.81;62.71;101242.59;4918280;29;20048;-83
2023/08/21 03:20:17;;;;;;;7.15;6.15;;;;;;;27.84;61.69;101241.84;4917497;29;20044;-82
2023/08/21 03:22:46;;;;;;;6.70;6.10;;;;;;;27.89;62.15;101238.69;4917493;29;20051;-82
2023/08/21 03:25:14;;;;;;;8.05;7.13;;;;;;;27.78;62.30;101240.56;4918861;29;20056;-83
2023/08/21 03:27:44;;;;;;;6.60;5.90;;;;;;;27.74;62.84;101239.72;4918134;29;20051;-83
2023/08/21 03:30:14;;;;;;;8.20;6.22;;;;;;;27.83;63.13;101233.78;4901483;29;20055;-83
2023/08/21 03:32:43;;;;;;;11.93;7.25;;;;;;;27.87;62.86;101241.06;4918280;29;20067;-82
2023/08/21 03:35:11;;;;;;;7.82;7.03;;;;;;;27.84;62.42;101243.84;4901543;29;20423;-82
2023/08/21 03:37:39;;;;;;;8.23;6.35;;;;;;;27.83;62.57;101245.84;4917274;29;20047;-82
2023/08/21 03:40:10;;;;;;;8.55;6.57;;;;;;;27.61;62.18;101242.78;4918162;29;20060;-82
2023/08/21 03:42:38;;;;;;;19.90;7.05;;;;;;;27.66;62.81;101240.81;4918184;29;20063;-82
2023/08/21 03:45:07;;;;;;;8.32;6.70;;;;;;;27.52;63.15;101241.41;4918170;29;20063;-82
2023/08/21 03:47:35;;;;;;;10.90;7.43;;;;;;;27.58;63.15;101239.91;4918173;29;20036;-83
2023/08/21 03:50:08;;;;;;;;;;;;;;;27.54;63.99;101242.66;4917466;29;20051;-88
2023/08/21 03:52:37;;;;;;;15.05;7.15;;;;;;;27.56;63.76;101234.63;4917115;29;19938;-88
2023/08/21 03:55:06;;;;;;;13.23;7.00;;;;;;;27.59;63.82;101236.72;4918192;29;20044;-89
2023/08/21 03:57:34;;;;;;;11.93;6.78;;;;;;;27.65;63.61;101231.56;4918178;29;20044;-87
2023/08/21 04:00:02;;;;;;;10.60;6.90;;;;;;;27.65;63.63;101240.00;4917967;29;20064;-87
2023/08/21 04:02:31;;;;;;;8.25;7.00;;;;;;;27.53;63.02;101235.41;4918088;29;20041;-87
2023/08/21 04:04:58;;;;;;;8.60;7.70;;;;;;;27.28;63.98;101235.91;4916796;29;20055;-87
2023/08/21 04:07:26;;;;;;;7.50;6.63;;;;;;;27.47;64.86;101242.56;4918170;29;20063;-88
2023/08/21 04:09:54;;;;;;;10.43;6.45;;;;;;;27.44;64.22;101234.88;4919140;29;20055;-87
2023/08/21 04:12:23;;;;;;;8.90;6.80;;;;;;;27.46;63.26;101241.75;4920222;29;20056;-87
2023/08/21 04:14:51;;;;;;;10.02;6.95;;;;;;;27.33;64.19;101241.16;4932408;29;20515;-88
2023/08/21 04:17:22;;;;;;;8.98;6.70;;;;;;;26.94;65.39;101236.59;4918243;29;20059;-88
2023/08/21 04:19:51;;;;;;;10.00;7.38;;;;;;;27.20;65.68;101236.97;4917401;29;20055;-87
2023/08/21 04:22:19;;;;;;;8.55;7.10;;;;;;;27.33;65.30;101234.75;4916580;29;20044;-88
2023/08/21 04:24:47;;;;;;;9.85;7.03;;;;;;;27.47;64.34;101239.75;4918294;29;20071;-88
2023/08/21 04:27:15;;;;;;;8.25;6.43;;;;;;;27.27;63.32;101239.88;4917418;29;20052;-87
2023/08/21 04:29:43;;;;;;;8.52;7.00;;;;;;;27.28;64.61;101240.69;4916489;29;20052;-93
2023/08/21 04:32:12;;;;;;;9.98;7.20;;;;;;;27.43;64.95;101250.13;4916687;29;20063;-89
2023/08/21 04:34:41;;;;;;;7.03;5.93;;;;;;;27.49;63.63;101243.00;4915468;29;20060;-88
2023/08/21 04:37:09;;;;;;;7.45;6.70;;;;;;;27.50;63.22;101247.41;4915994;29;20051;-87
2023/08/21 04:39:37;;;;;;;11.27;6.90;;;;;;;27.53;63.18;101243.84;4916134;29;20048;-89
2023/08/21 04:42:05;;;;;;;8.35;6.93;;;;;;;27.43;62.18;101244.50;4916177;29;20059;-89
2023/08/21 04:44:34;;;;;;;7.82;6.57;;;;;;;27.27;63.89;101248.31;4916348;29;20059;-89
2023/08/21 04:47:21;;;;;;;9.23;7.32;;;;;;;27.23;64.19;101250.28;4916028;29;20065;-89
2023/08/21 04:49:52;;;;;;;7.82;7.03;;;;;;;27.34;64.85;101251.25;4917245;29;20503;-89
2023/08/21 04:52:21;;;;;;;10.90;7.03;;;;;;;27.39;64.07;101263.31;4915756;29;20048;-89
2023/08/21 04:54:49;;;;;;;8.05;7.25;;;;;;;27.42;64.26;101254.13;4916917;29;20404;-88
2023/08/21 04:57:17;;;;;;;10.23;7.43;;;;;;;27.24;64.54;101254.69;4915577;29;20048;-89
2023/08/21 04:59:46;;;;;;;8.70;7.10;;;;;;;27.43;65.03;101250.97;4899936;29;20068;-89
2023/08/21 05:02:14;;;;;;;9.30;6.90;;;;;;;27.40;64.69;101260.13;4931282;29;20157;-86
2023/08/21 05:04:42;;;;;;;10.52;6.97;;;;;;;27.43;64.02;101265.00;4915699;29;20052;-85
2023/08/21 05:07:10;;;;;;;7.50;6.68;;;;;;;27.12;65.19;101252.13;4917262;29;20056;-90
2023/08/21 05:09:38;;;;;;;7.97;7.18;;;;;;;26.98;66.03;101256.34;4915149;29;20427;-91
2023/08/21 05:12:08;;;;;;;7.78;6.88;;;;;;;27.12;66.17;101266.16;4915345;29;20502;-91
2023/08/21 05:14:36;;;;;;;9.65;7.60;;;;;;;27.41;65.33;101273.00;4915207;29;20052;-80
2023/08/21 05:17:04;;;;;;;10.10;7.50;;;;;;;27.38;65.17;101276.56;4915305;29;20056;-80
2023/08/21 05:19:33;;;;;;;7.70;6.90;;;;;;;27.30;65.63;101269.22;4914719;29;20044;-80
2023/08/21 05:22:01;;;;;;;9.20;7.38;;;;;;;27.38;65.15;101273.75;4916628;29;20056;-81
2023/08/21 05:24:31;;;;;;;8.35;6.50;;;;;;;27.46;64.47;101272.66;4915112;29;20048;-81
2023/08/21 05:27:04;;;;;;;7.57;6.75;;;;;;;27.40;65.39;101278.97;4899774;29;20056;-81
2023/08/21 05:29:33;;;;;;;13.15;8.82;;;;;;;27.41;66.06;101281.41;4915328;29;20063;-81
2023/08/21 05:32:02;;;;;;;11.10;7.82;;;;;;;27.44;65.38;101282.66;4899419;29;20059;-81
2023/08/21 05:34:30;;;;;;;14.50;7.32;;;;;;;27.49;64.62;101287.97;4930748;29;20045;-81
2023/08/21 05:36:58;;;;;;;12.70;7.10;;;;;;;27.61;65.16;101279.31;4916532;29;20071;-81
2023/08/21 05:39:26;;;;;;;11.25;7.25;;;;;;;27.66;65.04;101297.03;4915147;29;20070;-81
2023/08/21 05:41:54;;;;;;;8.80;7.13;;;;;;;27.69;65.26;101285.03;4915833;29;20071;-81
2023/08/21 05:44:22;;;;;;;9.90;7.25;;;;;;;27.86;65.09;101292.88;4914996;29;20056;-81
2023/08/21 05:46:50;;;;;;;14.45;7.25;;;;;;;27.87;64.78;101294.50;4914431;29;20479;-81
2023/08/21 05:49:18;;;;;;;8.25;7.35;;;;;;;28.02;65.38;101291.88;4914941;29;20048;-81
2023/08/21 05:51:46;;;;;;;8.05;7.22;;;;;;;28.08;65.41;101295.97;4915972;29;20052;-81
2023/08/21 05:54:14;;;;;;;7.88;6.72;;;;;;;28.10;64.44;101296.38;4916212;29;20048;-81
2023/08/21 05:56:43;;;;;;;10.02;7.35;;;;;;;28.24;64.43;101292.16;4914866;29;20044;-81
2023/08/21 05:59:27;;;;;;;10.00;6.50;;;;;;;28.40;64.77;101291.91;4913287;29;20044;-79
2023/08/21 06:01:56;;;;;;;6.93;6.22;;;;;;;28.48;63.91;101289.97;4899322;29;20059;-79
2023/08/21 06:04:25;;;;;;;11.95;7.38;;;;;;;28.65;63.84;101289.34;4916452;29;20047;-81
2023/08/21 06:07:03;;;;;;;11.27;6.68;;;;;;;28.69;63.43;101298.59;4916599;29;20062;-81
2023/08/21 06:09:33;;;;;;;8.43;6.80;;;;;;;28.78;62.29;101303.13;4916810;29;20048;-81
2023/08/21 06:12:03;;;;;;;9.77;7.00;;;;;;;28.84;61.72;101298.75;4925930;29;20060;-79
2023/08/21 06:14:33;;;;;;;9.43;6.35;;;;;;;28.90;61.91;101299.22;4925841;29;20070;-80
2023/08/21 06:17:05;;;;;;;11.77;6.93;;;;;;;28.96;62.94;101298.47;4916709;29;20056;-79
2023/08/21 06:19:34;;;;;;;11.10;6.97;;;;;;;29.09;62.55;101303.78;4913976;29;20056;-80
2023/08/21 06:22:02;;;;;;;10.85;7.43;;;;;;;29.08;62.85;101302.97;4914876;29;20048;-79
2023/08/21 06:24:34;;;;;;;9.93;6.93;;;;;;;29.20;62.36;101289.75;4914063;29;20064;-80
2023/08/21 06:27:04;;;;;;;7.65;6.82;;;;;;;29.19;62.51;101297.44;4913837;29;20056;-80
2023/08/21 06:29:37;;;;;;;7.63;6.90;;;;;;;29.33;62.25;101295.91;4924978;29;20399;-82
2023/08/21 06:32:06;;;;;;;8.43;6.82;;;;;;;29.39;61.41;101291.50;4896815;29;20727;-81
2023/08/21 06:34:35;;;;;;;8.43;6.13;;;;;;;29.52;61.30;101296.84;4896727;29;20413;-82
2023/08/21 06:37:03;;;;;;;8.55;6.55;;;;;;;29.58;61.28;101298.06;4896790;29;20056;-81
2023/08/21 06:39:32;;;;;;;7.05;6.35;;;;;;;29.71;61.08;101298.53;4921021;29;20511;-80
2023/08/21 06:42:02;;;;;;;12.13;7.13;;;;;;;29.77;60.72;101300.56;4913377;29;20056;-82
2023/08/21 06:44:38;;;;;;;7.97;7.05;;;;;;;29.86;60.88;101303.03;4913808;29;20052;-80
2023/08/21 06:47:07;;;;;;;8.65;7.00;;;;;;;29.91;60.84;101294.19;4915762;29;20075;-82
2023/08/21 06:49:35;;;;;;;8.27;6.57;;;;;;;30.02;60.51;101304.72;4915820;29;20055;-81
2023/08/21 06:52:04;;;;;;;10.15;7.18;;;;;;;30.05;60.08;101303.91;4915797;29;20055;-82
2023/08/21 06:54:32;;;;;;;8.57;6.95;;;;;;;30.19;59.97;101303.16;4915689;29;20106;-81
2023/08/21 06:57:01;;;;;;;8.18;7.07;;;;;;;30.25;59.40;101295.13;4915901;29;20052;-81
2023/08/21 06:59:29;;;;;;;7.43;6.70;;;;;;;30.40;58.70;101295.97;4914843;29;20075;-82
2023/08/21 07:01:58;;;;;;;10.23;7.30;;;;;;;30.48;57.35;101303.22;4915086;29;20056;-82
2023/08/21 07:04:27;;;;;;;6.45;5.65;;;;;;;30.57;55.69;101300.00;4916074;29;20064;-82
2023/08/21 07:06:55;;;;;;;10.48;6.57;;;;;;;30.68;54.46;101312.16;4915746;29;20051;-85
2023/08/21 07:09:24;;;;;;;6.45;5.78;;;;;;;30.77;54.43;101308.09;4912288;29;20059;-79
2023/08/21 07:11:53;;;;;;;7.70;5.90;;;;;;;30.80;52.79;101307.31;4918638;29;20056;-80
2023/08/21 07:14:22;;;;;;;6.75;5.90;;;;;;;30.88;53.13;101313.78;4918812;29;20075;-80
2023/08/21 07:16:50;;;;;;;7.97;6.07;;;;;;;30.98;52.82;101304.47;4919484;29;20063;-80
2023/08/21 07:19:19;;;;;;;9.35;5.85;;;;;;;31.01;51.58;101311.34;4919263;29;20056;-83
2023/08/21 07:21:47;;;;;;;8.20;5.60;;;;;;;31.06;51.39;101308.91;4917520;29;20056;-82
2023/08/21 07:24:16;;;;;;;6.68;5.90;;;;;;;31.11;51.37;101310.53;4919451;29;20056;-87
2023/08/21 07:26:45;;;;;;;7.10;5.90;;;;;;;31.11;52.08;101310.53;4919137;29;20060;-83
2023/08/21 07:29:13;;;;;;;6.72;6.03;;;;;;;31.18;51.97;101309.72;4919273;29;20075;-83
2023/08/21 07:31:42;;;;;;;11.95;6.80;;;;;;;31.25;52.26;101306.88;4901027;29;20057;-80
2023/08/21 07:34:11;;;;;;;9.35;6.65;;;;;;;31.24;51.98;101308.09;4917479;29;20427;-82
2023/08/21 07:36:40;;;;;;;8.60;6.40;;;;;;;31.32;51.89;101308.91;4915564;29;20399;-81
2023/08/21 07:39:08;;;;;;;10.75;6.25;;;;;;;31.38;51.57;101313.72;4916560;29;20403;-81
2023/08/21 07:41:37;;;;;;;6.55;5.93;;;;;;;31.47;51.93;101310.47;4899883;29;20408;-80
2023/08/21 07:44:05;;;;;;;7.63;5.85;;;;;;;31.54;52.17;101320.97;4898214;29;20545;-80
2023/08/21 07:46:33;;;;;;;7.20;6.13;;;;;;;31.58;51.05;101313.28;4881741;29;20056;-79
2023/08/21 07:49:02;;;;;;;8.57;6.38;;;;;;;31.66;50.51;101311.22;4897343;29;20045;-82
2023/08/21 07:51:30;;;;;;;6.68;5.95;;;;;;;31.72;50.78;101308.78;4898099;29;20053;-80
2023/08/21 07:53:59;;;;;;;8.35;6.10;;;;;;;31.75;50.41;101308.78;4911921;29;20060;-81
2023/08/21 07:56:28;;;;;;;10.55;6.07;;;;;;;31.79;50.51;101305.94;4917804;29;20082;-82
2023/08/21 07:58:56;;;;;;;6.85;5.95;;;;;;;31.85;50.23;101309.97;4917995;29;20056;-82
2023/08/21 08:01:25;;;;;;;10.35;6.15;;;;;;;31.91;50.70;101310.38;4917008;29;20052;-85
2023/08/21 08:03:53;;;;;;;8.60;6.38;;;;;;;31.94;49.99;101311.53;4897608;29;20084;-82
2023/08/21 08:06:23;;;;;;;8.73;5.95;;;;;;;32.11;49.31;101310.63;4899058;29;20064;-81
2023/08/21 08:08:51;;;;;;;7.50;6.53;;;;;;;32.24;48.95;101315.81;4899203;29;20052;-81
2023/08/21 08:11:19;;;;;;;7.53;5.95;;;;;;;32.30;47.92;101309.31;4898651;29;20057;-80
2023/08/21 08:13:48;;;;;;;9.10;6.13;;;;;;;32.29;45.96;101315.41;4930114;29;20059;-92
2023/08/21 08:16:16;;;;;;;7.38;6.28;;;;;;;32.31;46.38;101315.81;4931102;29;20507;-82
2023/08/21 08:18:45;;;;;;;6.20;5.57;;;;;;;32.38;47.02;101318.59;4917804;29;20071;-84
2023/08/21 08:21:13;;;;;;;9.98;6.22;;;;;;;32.50;46.74;101322.19;4917389;29;20052;-82
2023/08/21 08:23:42;;;;;;;6.30;5.68;;;;;;;32.57;46.16;101319.28;4917929;29;20059;-82
2023/08/21 08:26:10;;;;;;;6.97;5.53;;;;;;;32.60;45.90;101312.81;4917888;29;20059;-80
2023/08/21 08:28:39;;;;;;;6.10;5.50;;;;;;;32.64;46.43;101322.06;4916720;29;20048;-81
2023/08/21 08:31:15;;;;;;;6.53;5.50;;;;;;;32.76;46.07;101322.78;4917842;29;20078;-83
2023/08/21 08:33:44;;;;;;;6.35;5.50;;;;;;;32.71;45.59;101322.00;4918053;29;20060;-82
2023/08/21 08:36:12;;;;;;;6.90;6.07;;;;;;;32.67;46.73;101314.75;4917755;29;20052;-84
2023/08/21 08:38:40;;;;;;;7.85;5.97;;;;;;;32.64;46.43;101315.59;4917805;29;20051;-83
2023/08/21 08:41:24;;;;;;;6.75;5.95;;;;;;;32.65;47.43;101305.88;4917861;29;20377;-84
2023/08/21 08:43:56;;;;;;;7.95;6.35;;;;;;;32.80;46.95;101306.56;4916721;29;20411;-83
2023/08/21 08:46:26;;;;;;;8.63;6.50;;;;;;;32.91;46.57;101307.28;4916584;29;20060;-83
2023/08/21 08:48:55;;;;;;;6.63;5.95;;;;;;;33.01;46.39;101313.28;4915762;29;20419;-84
2023/08/21 08:51:25;;;;;;;7.72;6.68;;;;;;;33.07;45.63;101303.09;4912691;29;20048;-82
2023/08/21 08:53:53;;;;;;;7.53;5.47;;;;;;;33.08;45.29;101301.91;4916287;29;20411;-82
2023/08/21 08:56:22;;;;;;;6.88;6.25;;;;;;;33.07;45.42;101303.09;4911768;29;20525;-81
2023/08/21 08:58:51;;;;;;;7.38;6.28;;;;;;;33.03;46.12;101297.47;4908177;29;20408;-82
2023/08/21 09:01:19;;;;;;;7.90;6.20;;;;;;;33.01;45.38;101299.94;4909410;29;20044;-83
2023/08/21 09:03:50;;;;;;;6.90;6.28;;;;;;;33.03;45.40;101288.19;4916278;29;20051;-82
2023/08/21 09:06:18;;;;;;;7.28;5.70;;;;;;;33.01;46.18;101287.78;4914734;29;20060;-83
2023/08/21 09:08:57;;;;;;;9.60;6.10;;;;;;;33.18;45.09;101292.47;4904095;29;20056;-83
2023/08/21 09:11:26;;;;;;;6.78;6.13;;;;;;;33.27;45.15;101285.50;4914026;29;20056;-84
2023/08/21 09:13:55;;;;;;;6.68;6.05;;;;;;;33.32;44.76;101288.66;4916269;29;20052;-82
2023/08/21 09:16:25;;;;;;;8.30;6.90;;;;;;;33.31;45.10;101291.91;4916248;29;20071;-84
2023/08/21 09:18:58;;;;;;;8.93;6.28;;;;;;;33.40;45.65;101292.22;4916117;29;20079;-84
2023/08/21 09:21:28;;;;;;;6.53;5.82;;;;;;;33.50;45.21;101294.19;4916092;29;20067;-90
2023/08/21 09:23:59;;;;;;;9.25;6.13;;;;;;;33.49;45.16;101281.19;4915993;29;20044;-82
2023/08/21 09:26:32;;;;;;;6.93;6.00;;;;;;;33.51;44.94;101280.78;4914923;29;20060;-84
2023/08/21 09:29:05;;;;;;;11.13;6.35;;;;;;;33.54;44.72;101281.97;4915826;29;20056;-83
2023/08/21 09:31:36;;;;;;;8.30;6.43;;;;;;;33.54;45.61;101281.97;4915889;29;20055;-87
2023/08/21 09:34:08;;;;;;;7.55;6.60;;;;;;;33.57;45.42;101267.75;4915696;29;20060;-84
2023/08/21 09:36:39;;;;;;;8.50;6.35;;;;;;;33.73;45.55;101267.16;4915042;29;20051;-85
2023/08/21 09:39:17;;;;;;;10.40;6.78;;;;;;;33.68;45.15;101270.47;4916441;29;20071;-83
2023/08/21 09:41:56;;;;;;;6.80;6.20;;;;;;;33.66;45.38;101274.94;4914714;29;20052;-87
2023/08/21 09:44:25;;;;;;;7.10;6.40;;;;;;;33.71;45.42;101261.06;4915818;29;20075;-91
2023/08/21 09:46:53;;;;;;;7.97;6.90;;;;;;;33.74;43.56;101263.06;4916053;29;20066;-85
2023/08/21 09:49:22;;;;;;;7.07;6.38;;;;;;;33.80;44.85;101251.25;4916538;29;20060;-84
2023/08/21 09:51:52;;;;;;;8.98;6.57;;;;;;;33.85;45.53;101247.91;4915743;29;20317;-85
2023/08/21 09:54:21;;;;;;;8.77;6.47;;;;;;;33.98;45.36;101251.00;4914312;29;20490;-83
2023/08/21 09:57:09;;;;;;;7.80;6.72;;;;;;;34.08;44.82;101254.94;4921927;29;20055;-85
2023/08/21 09:59:41;;;;;;;7.38;6.57;;;;;;;34.13;44.77;101257.28;4914104;29;20443;-87
2023/08/21 10:02:09;;;;;;;8.65;6.75;;;;;;;34.22;44.33;101251.88;4914146;29;20052;-83
2023/08/21 10:04:40;;;;;;;6.82;6.07;;;;;;;34.19;45.09;101244.22;4915368;29;20055;-83
2023/08/21 10:07:09;;;;;;;8.75;6.70;;;;;;;34.26;44.49;101248.97;4916158;29;20051;-86
2023/08/21 10:09:41;;;;;;;10.27;6.90;;;;;;;34.11;44.35;101242.72;4918072;29;20381;-83
2023/08/21 10:12:13;;;;;;;10.18;7.05;;;;;;;34.17;44.41;101241.00;4917450;29;20048;-84
2023/08/21 10:14:42;;;;;;;9.63;6.72;;;;;;;34.15;43.68;101237.78;4916262;29;20044;-84
2023/08/21 10:17:11;;;;;;;9.52;7.13;;;;;;;34.30;45.46;101244.84;4915002;29;20052;-87
2023/08/21 10:19:39;;;;;;;7.25;6.55;;;;;;;34.51;44.34;101234.38;4917265;29;20129;-85
2023/08/21 10:22:08;;;;;;;11.00;6.20;;;;;;;34.58;44.33;101236.31;4929781;29;20044;-83
2023/08/21 10:24:39;;;;;;;7.53;6.20;;;;;;;34.65;43.21;101235.38;4914517;29;20044;-83
2023/08/21 10:27:08;;;;;;;8.43;6.05;;;;;;;34.57;43.75;101238.38;4917211;29;20037;-88
2023/08/21 10:29:38;;;;;;;7.95;7.13;;;;;;;34.52;44.55;101229.47;4916107;29;20052;-84
2023/08/21 10:32:07;;;;;;;11.68;7.60;;;;;;;34.72;44.43;101243.78;4914302;29;20056;-88
2023/08/21 10:34:37;;;;;;;7.90;6.93;;;;;;;34.65;44.46;101232.53;4914774;29;20177;-84
2023/08/21 10:37:13;;;;;;;10.13;7.38;;;;;;;34.66;44.03;101226.44;4913916;29;20055;-81
2023/08/21 10:39:59;;;;;;;9.25;7.07;;;;;;;34.63;43.81;101223.63;4898845;29;20052;-83
2023/08/21 10:42:39;;;;;;;9.73;6.90;;;;;;;34.74;44.17;101221.41;4915291;29;20082;-82
2023/08/21 10:45:11;;;;;;;7.88;7.07;;;;;;;34.77;45.23;101220.53;4905320;29;20052;-83
2023/08/21 10:47:40;;;;;;;9.70;6.90;;;;;;;34.85;46.01;101212.69;4916284;29;20051;-82
2023/08/21 10:50:10;;;;;;;12.45;7.82;;;;;;;34.98;44.97;101207.16;4917993;29;20052;-83
2023/08/21 10:52:46;;;;;;;8.55;6.78;;;;;;;35.15;44.73;101212.94;4918921;29;20056;-84
2023/08/21 10:55:18;;;;;;;8.05;7.20;;;;;;;35.22;44.54;101218.47;4919776;29;20862;-82
2023/08/21 10:57:48;;;;;;;7.80;6.82;;;;;;;35.16;43.84;101212.53;4919825;29;20538;-88
2023/08/21 11:00:20;;;;;;;9.43;7.57;;;;;;;35.12;44.17;101214.63;4919513;29;20048;-84
2023/08/21 11:02:50;;;;;;;8.48;7.03;;;;;;;35.13;44.51;101209.75;4920329;29;20083;-86
2023/08/21 11:05:18;;;;;;;9.50;7.40;;;;;;;35.17;44.15;101208.44;4934106;29;20056;-84
2023/08/21 11:07:48;;;;;;;8.20;7.32;;;;;;;35.23;44.38;101206.69;4919186;29;20380;-85
2023/08/21 11:10:19;;;;;;;9.77;7.25;;;;;;;35.19;44.76;101202.31;4917995;29;20051;-84
2023/08/21 11:13:02;;;;;;;9.00;7.75;;;;;;;35.36;44.11;101203.97;4911841;29;20048;-88
2023/08/21 11:15:30;;;;;;;9.88;7.55;;;;;;;35.22;44.00;101215.66;4917811;29;20399;-86
2023/08/21 11:18:01;;;;;;;7.70;6.85;;;;;;;35.21;44.54;101197.78;4918653;29;20048;-83
2023/08/21 11:20:34;;;;;;;8.30;7.38;;;;;;;35.32;44.57;101199.63;4917170;29;20423;-86
2023/08/21 11:23:07;;;;;;;;;;;;;;;35.36;43.49;101203.97;4917877;29;20052;-85
2023/08/21 11:25:40;;;;;;;9.23;7.15;;;;;;;35.39;44.27;101202.31;4918646;29;19931;-88
2023/08/21 11:28:08;;;;;;;10.23;7.27;;;;;;;35.43;43.87;101190.84;4918310;29;20056;-85
2023/08/21 11:30:37;;;;;;;7.65;6.93;;;;;;;35.51;44.34;101187.41;4917698;29;20052;-85
2023/08/21 11:33:10;;;;;;;7.88;7.07;;;;;;;35.53;43.96;101189.81;4918221;29;20063;-83
2023/08/21 11:35:40;;;;;;;7.68;6.88;;;;;;;35.48;44.27;101181.78;4917714;29;20400;-84